Flugmeteorologie

METAR


Letzte Änderung: 18 Sep 2020 13:50:00
641
SAHU41 HASM 181400
METAR LHSM 181345Z AUTO 35006KT 290V040 CAVOK 19/09 Q1025 NOSIG

TAF


Letzte Änderung: 18 Sep 2020 11:05:00
635
FCHU99 LHSM 181100
TAF LHSM 181115Z 1812/1821 03008KT CAVOK BECMG 1817/1820 VRB02KT